sensor_id;sensor_type;location;lat;lon;timestamp;temperature;humidity
9845;DHT22;4961;50.782;6.080;2022-07-18T00:00:10;19.90;99.90
9845;DHT22;4961;50.782;6.080;2022-07-18T00:02:40;19.80;99.90
9845;DHT22;4961;50.782;6.080;2022-07-18T00:05:09;19.80;99.90
9845;DHT22;4961;50.782;6.080;2022-07-18T00:07:38;19.80;99.90
9845;DHT22;4961;50.782;6.080;2022-07-18T00:10:08;19.70;99.90
9845;DHT22;4961;50.782;6.080;2022-07-18T00:12:38;19.70;99.90
9845;DHT22;4961;50.782;6.080;2022-07-18T00:15:08;19.70;99.90
9845;DHT22;4961;50.782;6.080;2022-07-18T00:17:40;19.70;99.90
9845;DHT22;4961;50.782;6.080;2022-07-18T00:20:10;19.70;99.90
9845;DHT22;4961;50.782;6.080;2022-07-18T00:22:40;19.70;99.90
9845;DHT22;4961;50.782;6.080;2022-07-18T00:25:09;19.70;99.90
9845;DHT22;4961;50.782;6.080;2022-07-18T00:27:39;19.60;99.90
9845;DHT22;4961;50.782;6.080;2022-07-18T00:30:09;19.60;99.90
9845;DHT22;4961;50.782;6.080;2022-07-18T00:32:40;19.60;99.90
9845;DHT22;4961;50.782;6.080;2022-07-18T00:35:10;19.50;99.90
9845;DHT22;4961;50.782;6.080;2022-07-18T00:37:39;19.50;99.90
9845;DHT22;4961;50.782;6.080;2022-07-18T00:40:09;19.40;99.90
9845;DHT22;4961;50.782;6.080;2022-07-18T00:42:39;19.50;99.90
9845;DHT22;4961;50.782;6.080;2022-07-18T00:45:09;19.40;99.90
9845;DHT22;4961;50.782;6.080;2022-07-18T00:47:40;19.40;99.90
9845;DHT22;4961;50.782;6.080;2022-07-18T00:50:10;19.40;99.90
9845;DHT22;4961;50.782;6.080;2022-07-18T00:52:40;19.40;99.90
9845;DHT22;4961;50.782;6.080;2022-07-18T00:55:09;19.30;99.90
9845;DHT22;4961;50.782;6.080;2022-07-18T00:57:40;19.30;99.90
9845;DHT22;4961;50.782;6.080;2022-07-18T01:00:13;19.30;99.90
9845;DHT22;4961;50.782;6.080;2022-07-18T01:03:02;19.30;99.90
9845;DHT22;4961;50.782;6.080;2022-07-18T01:05:31;19.20;99.90
9845;DHT22;4961;50.782;6.080;2022-07-18T01:08:00;19.20;99.90
9845;DHT22;4961;50.782;6.080;2022-07-18T01:10:30;19.20;99.90
9845;DHT22;4961;50.782;6.080;2022-07-18T01:12:58;19.20;99.90
9845;DHT22;4961;50.782;6.080;2022-07-18T01:15:27;19.20;99.90
9845;DHT22;4961;50.782;6.080;2022-07-18T01:17:57;19.20;99.90
9845;DHT22;4961;50.782;6.080;2022-07-18T01:20:28;19.20;99.90
9845;DHT22;4961;50.782;6.080;2022-07-18T01:22:57;19.10;99.90
9845;DHT22;4961;50.782;6.080;2022-07-18T01:25:27;19.10;99.90
9845;DHT22;4961;50.782;6.080;2022-07-18T01:27:56;19.10;99.90
9845;DHT22;4961;50.782;6.080;2022-07-18T01:30:25;19.10;99.90
9845;DHT22;4961;50.782;6.080;2022-07-18T01:32:57;19.10;99.90
9845;DHT22;4961;50.782;6.080;2022-07-18T01:35:28;19.00;99.90
9845;DHT22;4961;50.782;6.080;2022-07-18T01:37:59;19.00;99.90
9845;DHT22;4961;50.782;6.080;2022-07-18T01:40:27;19.00;99.90
9845;DHT22;4961;50.782;6.080;2022-07-18T01:42:56;19.00;99.90
9845;DHT22;4961;50.782;6.080;2022-07-18T01:45:24;19.00;99.90
9845;DHT22;4961;50.782;6.080;2022-07-18T01:47:52;19.00;99.90
9845;DHT22;4961;50.782;6.080;2022-07-18T01:50:21;19.00;99.90
9845;DHT22;4961;50.782;6.080;2022-07-18T01:52:51;18.90;99.90
9845;DHT22;4961;50.782;6.080;2022-07-18T01:55:19;18.90;99.90
9845;DHT22;4961;50.782;6.080;2022-07-18T01:57:47;18.90;99.90
9845;DHT22;4961;50.782;6.080;2022-07-18T02:00:16;19.00;99.90
9845;DHT22;4961;50.782;6.080;2022-07-18T02:02:44;18.90;99.90
9845;DHT22;4961;50.782;6.080;2022-07-18T02:05:13;18.90;99.90
9845;DHT22;4961;50.782;6.080;2022-07-18T02:07:42;18.90;99.90
9845;DHT22;4961;50.782;6.080;2022-07-18T02:10:13;18.80;99.90
9845;DHT22;4961;50.782;6.080;2022-07-18T02:12:42;18.80;99.90
9845;DHT22;4961;50.782;6.080;2022-07-18T02:15:12;18.80;99.90
9845;DHT22;4961;50.782;6.080;2022-07-18T02:17:41;18.70;99.90
9845;DHT22;4961;50.782;6.080;2022-07-18T02:20:13;18.70;99.90
9845;DHT22;4961;50.782;6.080;2022-07-18T02:22:42;18.70;99.90
9845;DHT22;4961;50.782;6.080;2022-07-18T02:25:12;18.70;99.90
9845;DHT22;4961;50.782;6.080;2022-07-18T02:27:41;18.70;99.90
9845;DHT22;4961;50.782;6.080;2022-07-18T02:30:10;18.60;99.90
9845;DHT22;4961;50.782;6.080;2022-07-18T02:32:38;18.60;99.90
9845;DHT22;4961;50.782;6.080;2022-07-18T02:35:08;18.50;99.90
9845;DHT22;4961;50.782;6.080;2022-07-18T02:37:37;18.50;99.90
9845;DHT22;4961;50.782;6.080;2022-07-18T02:40:10;18.50;99.90
9845;DHT22;4961;50.782;6.080;2022-07-18T02:42:40;18.40;99.90
9845;DHT22;4961;50.782;6.080;2022-07-18T02:45:09;18.40;99.90
9845;DHT22;4961;50.782;6.080;2022-07-18T02:47:37;18.40;99.90
9845;DHT22;4961;50.782;6.080;2022-07-18T02:50:07;18.40;99.90
9845;DHT22;4961;50.782;6.080;2022-07-18T02:52:36;18.30;99.90
9845;DHT22;4961;50.782;6.080;2022-07-18T02:55:05;18.30;99.90
9845;DHT22;4961;50.782;6.080;2022-07-18T02:57:34;18.30;99.90
9845;DHT22;4961;50.782;6.080;2022-07-18T03:00:05;18.30;99.90
9845;DHT22;4961;50.782;6.080;2022-07-18T03:02:34;18.20;99.90
9845;DHT22;4961;50.782;6.080;2022-07-18T03:05:03;18.20;99.90
9845;DHT22;4961;50.782;6.080;2022-07-18T03:07:32;18.20;99.90
9845;DHT22;4961;50.782;6.080;2022-07-18T03:10:00;18.20;99.90
9845;DHT22;4961;50.782;6.080;2022-07-18T03:12:29;18.20;99.90
9845;DHT22;4961;50.782;6.080;2022-07-18T03:14:57;18.10;99.90
9845;DHT22;4961;50.782;6.080;2022-07-18T03:17:27;18.10;99.90
9845;DHT22;4961;50.782;6.080;2022-07-18T03:19:55;18.10;99.90
9845;DHT22;4961;50.782;6.080;2022-07-18T03:22:24;18.10;99.90
9845;DHT22;4961;50.782;6.080;2022-07-18T03:24:52;18.10;99.90
9845;DHT22;4961;50.782;6.080;2022-07-18T03:27:20;18.10;99.90
9845;DHT22;4961;50.782;6.080;2022-07-18T03:29:49;18.00;99.90
9845;DHT22;4961;50.782;6.080;2022-07-18T03:32:18;18.00;99.90
9845;DHT22;4961;50.782;6.080;2022-07-18T03:34:47;18.00;99.90
9845;DHT22;4961;50.782;6.080;2022-07-18T03:37:16;18.00;99.90
9845;DHT22;4961;50.782;6.080;2022-07-18T03:39:44;18.00;99.90
9845;DHT22;4961;50.782;6.080;2022-07-18T03:42:12;17.90;99.90
9845;DHT22;4961;50.782;6.080;2022-07-18T03:44:40;17.90;99.90
9845;DHT22;4961;50.782;6.080;2022-07-18T03:47:09;17.90;99.90
9845;DHT22;4961;50.782;6.080;2022-07-18T03:49:38;17.90;99.90
9845;DHT22;4961;50.782;6.080;2022-07-18T03:52:07;17.90;99.90
9845;DHT22;4961;50.782;6.080;2022-07-18T03:54:36;17.90;99.90
9845;DHT22;4961;50.782;6.080;2022-07-18T03:57:04;17.90;99.90
9845;DHT22;4961;50.782;6.080;2022-07-18T03:59:32;17.90;99.90
9845;DHT22;4961;50.782;6.080;2022-07-18T04:02:02;17.90;99.90
9845;DHT22;4961;50.782;6.080;2022-07-18T04:04:31;17.90;99.90
9845;DHT22;4961;50.782;6.080;2022-07-18T04:06:59;17.90;99.90
9845;DHT22;4961;50.782;6.080;2022-07-18T04:09:28;17.90;99.90
9845;DHT22;4961;50.782;6.080;2022-07-18T04:11:57;17.80;99.90
9845;DHT22;4961;50.782;6.080;2022-07-18T04:14:25;17.90;99.90
9845;DHT22;4961;50.782;6.080;2022-07-18T04:16:53;17.90;99.90
9845;DHT22;4961;50.782;6.080;2022-07-18T04:19:22;17.90;99.90
9845;DHT22;4961;50.782;6.080;2022-07-18T04:21:52;17.90;99.90
9845;DHT22;4961;50.782;6.080;2022-07-18T04:24:20;17.90;99.90
9845;DHT22;4961;50.782;6.080;2022-07-18T04:26:50;17.90;99.90
9845;DHT22;4961;50.782;6.080;2022-07-18T04:29:18;17.90;99.90
9845;DHT22;4961;50.782;6.080;2022-07-18T04:31:46;18.00;99.90
9845;DHT22;4961;50.782;6.080;2022-07-18T04:34:16;17.90;99.90
9845;DHT22;4961;50.782;6.080;2022-07-18T04:36:45;18.00;99.90
9845;DHT22;4961;50.782;6.080;2022-07-18T04:39:13;18.00;99.90
9845;DHT22;4961;50.782;6.080;2022-07-18T04:41:41;18.00;99.90
9845;DHT22;4961;50.782;6.080;2022-07-18T04:44:12;18.00;99.90
9845;DHT22;4961;50.782;6.080;2022-07-18T04:46:40;18.00;99.90
9845;DHT22;4961;50.782;6.080;2022-07-18T04:49:08;18.00;99.90
9845;DHT22;4961;50.782;6.080;2022-07-18T04:51:36;18.00;99.90
9845;DHT22;4961;50.782;6.080;2022-07-18T04:54:05;18.10;99.90
9845;DHT22;4961;50.782;6.080;2022-07-18T04:56:35;18.00;99.90
9845;DHT22;4961;50.782;6.080;2022-07-18T04:59:03;18.00;99.90
9845;DHT22;4961;50.782;6.080;2022-07-18T05:01:32;18.10;99.90
9845;DHT22;4961;50.782;6.080;2022-07-18T05:04:02;18.10;99.90
9845;DHT22;4961;50.782;6.080;2022-07-18T05:06:30;18.10;99.90
9845;DHT22;4961;50.782;6.080;2022-07-18T05:08:59;18.10;99.90
9845;DHT22;4961;50.782;6.080;2022-07-18T05:11:28;18.20;99.90
9845;DHT22;4961;50.782;6.080;2022-07-18T05:13:56;18.10;99.90
9845;DHT22;4961;50.782;6.080;2022-07-18T05:16:24;18.20;99.90
9845;DHT22;4961;50.782;6.080;2022-07-18T05:18:54;18.20;99.90
9845;DHT22;4961;50.782;6.080;2022-07-18T05:21:22;18.20;99.90
9845;DHT22;4961;50.782;6.080;2022-07-18T05:23:51;18.30;99.90
9845;DHT22;4961;50.782;6.080;2022-07-18T05:26:19;18.30;99.90
9845;DHT22;4961;50.782;6.080;2022-07-18T05:28:47;18.40;99.90
9845;DHT22;4961;50.782;6.080;2022-07-18T05:31:16;18.40;99.90
9845;DHT22;4961;50.782;6.080;2022-07-18T05:33:44;18.40;99.90
9845;DHT22;4961;50.782;6.080;2022-07-18T05:36:14;18.50;99.90
9845;DHT22;4961;50.782;6.080;2022-07-18T05:38:42;18.50;99.90
9845;DHT22;4961;50.782;6.080;2022-07-18T05:41:11;18.60;99.90
9845;DHT22;4961;50.782;6.080;2022-07-18T05:43:39;18.70;99.90
9845;DHT22;4961;50.782;6.080;2022-07-18T05:46:08;18.70;99.90
9845;DHT22;4961;50.782;6.080;2022-07-18T05:48:43;18.70;99.90
9845;DHT22;4961;50.782;6.080;2022-07-18T05:51:14;18.80;99.90
9845;DHT22;4961;50.782;6.080;2022-07-18T05:53:42;18.90;99.90
9845;DHT22;4961;50.782;6.080;2022-07-18T05:56:11;18.90;99.90
9845;DHT22;4961;50.782;6.080;2022-07-18T05:58:39;19.00;99.90
9845;DHT22;4961;50.782;6.080;2022-07-18T06:01:13;19.10;99.90
9845;DHT22;4961;50.782;6.080;2022-07-18T06:03:44;19.20;99.90
9845;DHT22;4961;50.782;6.080;2022-07-18T06:06:14;19.30;99.90
9845;DHT22;4961;50.782;6.080;2022-07-18T06:08:42;19.40;99.90
9845;DHT22;4961;50.782;6.080;2022-07-18T06:11:11;19.50;99.90
9845;DHT22;4961;50.782;6.080;2022-07-18T06:13:40;19.60;99.90
9845;DHT22;4961;50.782;6.080;2022-07-18T06:16:09;19.70;99.90
9845;DHT22;4961;50.782;6.080;2022-07-18T06:18:38;19.80;99.90
9845;DHT22;4961;50.782;6.080;2022-07-18T06:21:07;19.90;99.90
9845;DHT22;4961;50.782;6.080;2022-07-18T06:23:36;20.00;99.90
9845;DHT22;4961;50.782;6.080;2022-07-18T06:26:06;20.20;99.90
9845;DHT22;4961;50.782;6.080;2022-07-18T06:28:34;20.30;99.90
9845;DHT22;4961;50.782;6.080;2022-07-18T06:31:02;20.40;99.90
9845;DHT22;4961;50.782;6.080;2022-07-18T06:33:31;20.50;99.90
9845;DHT22;4961;50.782;6.080;2022-07-18T06:35:59;20.70;99.90
9845;DHT22;4961;50.782;6.080;2022-07-18T06:38:28;20.80;99.90
9845;DHT22;4961;50.782;6.080;2022-07-18T06:40:58;20.90;99.90
9845;DHT22;4961;50.782;6.080;2022-07-18T06:43:26;21.00;99.90
9845;DHT22;4961;50.782;6.080;2022-07-18T06:45:54;21.20;99.90
9845;DHT22;4961;50.782;6.080;2022-07-18T06:48:25;21.30;99.90
9845;DHT22;4961;50.782;6.080;2022-07-18T06:50:53;21.40;99.90
9845;DHT22;4961;50.782;6.080;2022-07-18T06:53:21;21.50;99.90
9845;DHT22;4961;50.782;6.080;2022-07-18T06:55:50;21.70;99.90
9845;DHT22;4961;50.782;6.080;2022-07-18T06:58:19;21.80;99.90
9845;DHT22;4961;50.782;6.080;2022-07-18T07:00:48;21.90;99.90
9845;DHT22;4961;50.782;6.080;2022-07-18T07:03:16;22.00;99.90
9845;DHT22;4961;50.782;6.080;2022-07-18T07:05:44;22.10;99.90
9845;DHT22;4961;50.782;6.080;2022-07-18T07:08:13;22.20;99.90
9845;DHT22;4961;50.782;6.080;2022-07-18T07:10:41;22.30;99.90
9845;DHT22;4961;50.782;6.080;2022-07-18T07:13:09;22.50;99.90
9845;DHT22;4961;50.782;6.080;2022-07-18T07:15:45;22.50;99.90
9845;DHT22;4961;50.782;6.080;2022-07-18T07:18:13;22.60;99.90
9845;DHT22;4961;50.782;6.080;2022-07-18T07:20:42;22.70;99.90
9845;DHT22;4961;50.782;6.080;2022-07-18T07:23:10;22.80;99.90
9845;DHT22;4961;50.782;6.080;2022-07-18T07:25:39;22.90;99.90
9845;DHT22;4961;50.782;6.080;2022-07-18T07:28:07;22.90;99.90
9845;DHT22;4961;50.782;6.080;2022-07-18T07:30:36;23.10;99.90
9845;DHT22;4961;50.782;6.080;2022-07-18T07:33:07;23.10;99.90
9845;DHT22;4961;50.782;6.080;2022-07-18T07:35:36;23.10;99.90
9845;DHT22;4961;50.782;6.080;2022-07-18T07:38:04;23.20;99.90
9845;DHT22;4961;50.782;6.080;2022-07-18T07:40:33;23.30;99.90
9845;DHT22;4961;50.782;6.080;2022-07-18T07:43:06;23.40;99.90
9845;DHT22;4961;50.782;6.080;2022-07-18T07:45:36;23.50;99.90
9845;DHT22;4961;50.782;6.080;2022-07-18T07:48:06;23.50;99.90
9845;DHT22;4961;50.782;6.080;2022-07-18T07:50:35;23.60;99.90
9845;DHT22;4961;50.782;6.080;2022-07-18T07:53:03;23.70;99.80
9845;DHT22;4961;50.782;6.080;2022-07-18T07:55:32;23.80;99.90
9845;DHT22;4961;50.782;6.080;2022-07-18T07:58:00;23.90;99.80
9845;DHT22;4961;50.782;6.080;2022-07-18T08:00:32;23.90;99.80
9845;DHT22;4961;50.782;6.080;2022-07-18T08:03:02;24.00;99.70
9845;DHT22;4961;50.782;6.080;2022-07-18T08:05:33;24.20;97.20
9845;DHT22;4961;50.782;6.080;2022-07-18T08:08:02;24.30;98.30
9845;DHT22;4961;50.782;6.080;2022-07-18T08:10:31;24.40;97.10
9845;DHT22;4961;50.782;6.080;2022-07-18T08:13:09;24.50;96.90
9845;DHT22;4961;50.782;6.080;2022-07-18T08:15:38;24.50;97.30
9845;DHT22;4961;50.782;6.080;2022-07-18T08:18:07;24.50;96.50
9845;DHT22;4961;50.782;6.080;2022-07-18T08:20:37;24.50;96.70
9845;DHT22;4961;50.782;6.080;2022-07-18T08:23:07;24.60;97.60
9845;DHT22;4961;50.782;6.080;2022-07-18T08:25:38;24.70;96.70
9845;DHT22;4961;50.782;6.080;2022-07-18T08:28:08;25.10;95.40
9845;DHT22;4961;50.782;6.080;2022-07-18T08:30:38;25.20;96.40
9845;DHT22;4961;50.782;6.080;2022-07-18T08:33:07;25.10;95.80
9845;DHT22;4961;50.782;6.080;2022-07-18T08:35:37;25.10;94.70
9845;DHT22;4961;50.782;6.080;2022-07-18T08:38:05;25.20;94.10
9845;DHT22;4961;50.782;6.080;2022-07-18T08:40:34;25.30;94.80
9845;DHT22;4961;50.782;6.080;2022-07-18T08:43:03;25.30;94.80
9845;DHT22;4961;50.782;6.080;2022-07-18T08:45:54;25.50;93.00
9845;DHT22;4961;50.782;6.080;2022-07-18T08:48:23;25.50;93.50
9845;DHT22;4961;50.782;6.080;2022-07-18T08:50:53;25.60;92.60
9845;DHT22;4961;50.782;6.080;2022-07-18T08:53:22;25.60;92.10
9845;DHT22;4961;50.782;6.080;2022-07-18T08:55:51;25.70;92.50
9845;DHT22;4961;50.782;6.080;2022-07-18T08:58:19;25.90;92.70
9845;DHT22;4961;50.782;6.080;2022-07-18T09:01:07;25.90;91.40
9845;DHT22;4961;50.782;6.080;2022-07-18T09:03:36;26.00;91.50
9845;DHT22;4961;50.782;6.080;2022-07-18T09:06:08;26.20;91.70
9845;DHT22;4961;50.782;6.080;2022-07-18T09:08:37;26.40;91.70
9845;DHT22;4961;50.782;6.080;2022-07-18T09:11:11;26.60;90.50
9845;DHT22;4961;50.782;6.080;2022-07-18T09:14:00;26.70;87.70
9845;DHT22;4961;50.782;6.080;2022-07-18T09:16:28;27.00;89.00
9845;DHT22;4961;50.782;6.080;2022-07-18T09:18:57;27.20;89.90
9845;DHT22;4961;50.782;6.080;2022-07-18T09:21:36;27.50;91.90
9845;DHT22;4961;50.782;6.080;2022-07-18T09:24:06;27.80;89.00
9845;DHT22;4961;50.782;6.080;2022-07-18T09:26:38;28.10;86.10
9845;DHT22;4961;50.782;6.080;2022-07-18T09:29:07;28.40;89.70
9845;DHT22;4961;50.782;6.080;2022-07-18T09:31:55;28.70;84.30
9845;DHT22;4961;50.782;6.080;2022-07-18T09:34:34;29.00;80.50
9845;DHT22;4961;50.782;6.080;2022-07-18T09:37:04;29.30;79.80
9845;DHT22;4961;50.782;6.080;2022-07-18T09:39:33;29.60;78.10
9845;DHT22;4961;50.782;6.080;2022-07-18T09:42:14;29.90;86.70
9845;DHT22;4961;50.782;6.080;2022-07-18T09:44:43;30.20;78.30
9845;DHT22;4961;50.782;6.080;2022-07-18T09:47:24;30.40;77.00
9845;DHT22;4961;50.782;6.080;2022-07-18T09:49:52;30.70;80.40
9845;DHT22;4961;50.782;6.080;2022-07-18T09:52:22;30.90;73.30
9845;DHT22;4961;50.782;6.080;2022-07-18T09:55:03;31.20;73.90
9845;DHT22;4961;50.782;6.080;2022-07-18T09:57:32;31.50;70.70
9845;DHT22;4961;50.782;6.080;2022-07-18T10:00:00;31.50;74.70
9845;DHT22;4961;50.782;6.080;2022-07-18T10:02:29;31.70;72.60
9845;DHT22;4961;50.782;6.080;2022-07-18T10:04:57;31.70;70.80
9845;DHT22;4961;50.782;6.080;2022-07-18T10:07:27;31.80;69.50
9845;DHT22;4961;50.782;6.080;2022-07-18T10:09:56;32.00;71.70
9845;DHT22;4961;50.782;6.080;2022-07-18T10:12:25;32.10;69.40
9845;DHT22;4961;50.782;6.080;2022-07-18T10:14:53;32.20;67.30
9845;DHT22;4961;50.782;6.080;2022-07-18T10:17:22;32.20;64.90
9845;DHT22;4961;50.782;6.080;2022-07-18T10:19:51;32.20;72.50
9845;DHT22;4961;50.782;6.080;2022-07-18T10:22:19;32.50;78.10
9845;DHT22;4961;50.782;6.080;2022-07-18T10:24:50;32.70;67.00
9845;DHT22;4961;50.782;6.080;2022-07-18T10:27:20;32.90;68.30
9845;DHT22;4961;50.782;6.080;2022-07-18T10:30:08;33.10;68.20
9845;DHT22;4961;50.782;6.080;2022-07-18T10:32:37;33.20;66.10
9845;DHT22;4961;50.782;6.080;2022-07-18T10:35:07;33.40;71.20
9845;DHT22;4961;50.782;6.080;2022-07-18T10:37:38;33.50;64.40
9845;DHT22;4961;50.782;6.080;2022-07-18T10:40:26;33.50;68.30
9845;DHT22;4961;50.782;6.080;2022-07-18T10:43:33;33.50;63.50
9845;DHT22;4961;50.782;6.080;2022-07-18T10:46:03;33.50;68.50
9845;DHT22;4961;50.782;6.080;2022-07-18T10:48:52;33.60;66.10
9845;DHT22;4961;50.782;6.080;2022-07-18T10:51:29;33.80;64.20
9845;DHT22;4961;50.782;6.080;2022-07-18T10:54:09;34.00;68.80
9845;DHT22;4961;50.782;6.080;2022-07-18T10:57:10;34.20;66.50
9845;DHT22;4961;50.782;6.080;2022-07-18T10:59:59;34.40;64.00
9845;DHT22;4961;50.782;6.080;2022-07-18T11:02:36;34.40;59.70
9845;DHT22;4961;50.782;6.080;2022-07-18T11:08:19;34.40;66.20
9845;DHT22;4961;50.782;6.080;2022-07-18T11:11:11;34.60;66.60
9845;DHT22;4961;50.782;6.080;2022-07-18T11:13:43;34.50;60.40
9845;DHT22;4961;50.782;6.080;2022-07-18T11:16:21;34.50;60.10
9845;DHT22;4961;50.782;6.080;2022-07-18T11:19:16;34.50;60.00
9845;DHT22;4961;50.782;6.080;2022-07-18T11:21:45;34.40;63.10
9845;DHT22;4961;50.782;6.080;2022-07-18T11:24:14;34.40;59.70
9845;DHT22;4961;50.782;6.080;2022-07-18T11:26:44;34.50;68.20
9845;DHT22;4961;50.782;6.080;2022-07-18T11:29:17;34.60;64.40
9845;DHT22;4961;50.782;6.080;2022-07-18T11:31:49;34.70;60.60
9845;DHT22;4961;50.782;6.080;2022-07-18T11:34:18;34.80;73.30
9845;DHT22;4961;50.782;6.080;2022-07-18T11:37:02;34.80;67.10
9845;DHT22;4961;50.782;6.080;2022-07-18T11:39:32;34.90;64.10
9845;DHT22;4961;50.782;6.080;2022-07-18T11:42:02;35.10;69.30
9845;DHT22;4961;50.782;6.080;2022-07-18T11:44:33;35.20;62.80
9845;DHT22;4961;50.782;6.080;2022-07-18T11:47:06;35.20;59.10
9845;DHT22;4961;50.782;6.080;2022-07-18T11:49:36;34.90;59.70
9845;DHT22;4961;50.782;6.080;2022-07-18T11:52:06;35.00;60.60
9845;DHT22;4961;50.782;6.080;2022-07-18T11:54:35;35.00;60.80
9845;DHT22;4961;50.782;6.080;2022-07-18T11:57:03;35.00;59.80
9845;DHT22;4961;50.782;6.080;2022-07-18T11:59:38;34.90;57.50
9845;DHT22;4961;50.782;6.080;2022-07-18T12:02:08;34.90;58.30
9845;DHT22;4961;50.782;6.080;2022-07-18T12:04:37;34.80;59.20
9845;DHT22;4961;50.782;6.080;2022-07-18T12:07:18;34.70;56.90
9845;DHT22;4961;50.782;6.080;2022-07-18T12:09:47;34.60;59.60
9845;DHT22;4961;50.782;6.080;2022-07-18T12:12:19;34.60;60.30
9845;DHT22;4961;50.782;6.080;2022-07-18T12:14:58;34.60;58.20
9845;DHT22;4961;50.782;6.080;2022-07-18T12:17:27;34.70;59.90
9845;DHT22;4961;50.782;6.080;2022-07-18T12:20:10;34.70;60.20
9845;DHT22;4961;50.782;6.080;2022-07-18T12:23:07;34.70;58.00
9845;DHT22;4961;50.782;6.080;2022-07-18T12:25:38;34.80;65.00
9845;DHT22;4961;50.782;6.080;2022-07-18T12:28:14;34.70;57.10
9845;DHT22;4961;50.782;6.080;2022-07-18T12:30:45;34.60;57.00
9845;DHT22;4961;50.782;6.080;2022-07-18T12:33:14;34.50;59.20
9845;DHT22;4961;50.782;6.080;2022-07-18T12:35:43;34.60;57.60
9845;DHT22;4961;50.782;6.080;2022-07-18T12:38:12;34.60;57.50
9845;DHT22;4961;50.782;6.080;2022-07-18T12:40:43;34.70;56.80
9845;DHT22;4961;50.782;6.080;2022-07-18T12:43:14;34.50;58.10
9845;DHT22;4961;50.782;6.080;2022-07-18T12:45:44;34.70;55.60
9845;DHT22;4961;50.782;6.080;2022-07-18T12:48:13;34.70;57.80
9845;DHT22;4961;50.782;6.080;2022-07-18T12:50:42;34.80;58.30
9845;DHT22;4961;50.782;6.080;2022-07-18T12:53:12;34.70;56.10
9845;DHT22;4961;50.782;6.080;2022-07-18T12:55:40;34.60;55.90
9845;DHT22;4961;50.782;6.080;2022-07-18T12:58:09;34.60;59.40
9845;DHT22;4961;50.782;6.080;2022-07-18T13:00:37;34.60;58.00
9845;DHT22;4961;50.782;6.080;2022-07-18T13:03:07;34.80;58.60
9845;DHT22;4961;50.782;6.080;2022-07-18T13:05:35;34.80;57.10
9845;DHT22;4961;50.782;6.080;2022-07-18T13:08:04;34.60;54.70
9845;DHT22;4961;50.782;6.080;2022-07-18T13:10:35;34.50;57.00
9845;DHT22;4961;50.782;6.080;2022-07-18T13:13:05;34.60;58.20
9845;DHT22;4961;50.782;6.080;2022-07-18T13:15:34;34.60;58.30
9845;DHT22;4961;50.782;6.080;2022-07-18T13:18:04;34.50;55.70
9845;DHT22;4961;50.782;6.080;2022-07-18T13:20:35;34.50;56.00
9845;DHT22;4961;50.782;6.080;2022-07-18T13:23:05;34.50;57.80
9845;DHT22;4961;50.782;6.080;2022-07-18T13:25:33;34.60;57.00
9845;DHT22;4961;50.782;6.080;2022-07-18T13:28:02;34.50;57.70
9845;DHT22;4961;50.782;6.080;2022-07-18T13:30:30;34.40;58.00
9845;DHT22;4961;50.782;6.080;2022-07-18T13:32:59;34.30;56.00
9845;DHT22;4961;50.782;6.080;2022-07-18T13:35:27;34.30;58.80
9845;DHT22;4961;50.782;6.080;2022-07-18T13:37:59;34.30;57.30
9845;DHT22;4961;50.782;6.080;2022-07-18T13:40:27;34.30;56.40
9845;DHT22;4961;50.782;6.080;2022-07-18T13:42:55;34.30;55.90
9845;DHT22;4961;50.782;6.080;2022-07-18T13:45:24;34.40;57.50
9845;DHT22;4961;50.782;6.080;2022-07-18T13:47:52;34.40;57.70
9845;DHT22;4961;50.782;6.080;2022-07-18T13:50:21;34.30;55.00
9845;DHT22;4961;50.782;6.080;2022-07-18T13:52:50;34.30;57.80
9845;DHT22;4961;50.782;6.080;2022-07-18T13:55:19;34.20;56.10
9845;DHT22;4961;50.782;6.080;2022-07-18T13:57:48;34.20;57.20
9845;DHT22;4961;50.782;6.080;2022-07-18T14:00:17;34.00;56.90
9845;DHT22;4961;50.782;6.080;2022-07-18T14:02:46;34.00;56.60
9845;DHT22;4961;50.782;6.080;2022-07-18T14:05:14;33.90;55.60
9845;DHT22;4961;50.782;6.080;2022-07-18T14:07:44;33.90;57.50
9845;DHT22;4961;50.782;6.080;2022-07-18T14:10:15;33.80;56.30
9845;DHT22;4961;50.782;6.080;2022-07-18T14:12:45;33.70;55.30
9845;DHT22;4961;50.782;6.080;2022-07-18T14:15:14;33.80;57.80
9845;DHT22;4961;50.782;6.080;2022-07-18T14:17:42;33.80;55.90
9845;DHT22;4961;50.782;6.080;2022-07-18T14:20:11;33.70;55.60
9845;DHT22;4961;50.782;6.080;2022-07-18T14:22:41;33.60;56.90
9845;DHT22;4961;50.782;6.080;2022-07-18T14:25:12;33.60;56.50
9845;DHT22;4961;50.782;6.080;2022-07-18T14:27:40;33.60;57.20
9845;DHT22;4961;50.782;6.080;2022-07-18T14:30:12;33.60;56.90
9845;DHT22;4961;50.782;6.080;2022-07-18T14:32:41;33.60;58.60
9845;DHT22;4961;50.782;6.080;2022-07-18T14:35:10;33.60;56.50
9845;DHT22;4961;50.782;6.080;2022-07-18T14:37:39;33.60;58.00
9845;DHT22;4961;50.782;6.080;2022-07-18T14:40:08;33.60;56.80
9845;DHT22;4961;50.782;6.080;2022-07-18T14:42:37;33.50;53.80
9845;DHT22;4961;50.782;6.080;2022-07-18T14:45:08;33.50;55.40
9845;DHT22;4961;50.782;6.080;2022-07-18T14:47:38;33.50;56.30
9845;DHT22;4961;50.782;6.080;2022-07-18T14:50:07;33.40;55.90
9845;DHT22;4961;50.782;6.080;2022-07-18T14:52:37;33.40;55.50
9845;DHT22;4961;50.782;6.080;2022-07-18T14:55:06;33.40;57.60
9845;DHT22;4961;50.782;6.080;2022-07-18T14:57:35;33.40;56.00
9845;DHT22;4961;50.782;6.080;2022-07-18T15:00:06;33.40;55.90
9845;DHT22;4961;50.782;6.080;2022-07-18T15:02:38;33.30;55.30
9845;DHT22;4961;50.782;6.080;2022-07-18T15:05:07;33.30;56.70
9845;DHT22;4961;50.782;6.080;2022-07-18T15:07:36;33.30;55.40
9845;DHT22;4961;50.782;6.080;2022-07-18T15:10:06;33.20;55.10
9845;DHT22;4961;50.782;6.080;2022-07-18T15:12:35;33.20;55.80
9845;DHT22;4961;50.782;6.080;2022-07-18T15:15:05;33.20;55.00
9845;DHT22;4961;50.782;6.080;2022-07-18T15:17:34;33.20;56.20
9845;DHT22;4961;50.782;6.080;2022-07-18T15:20:05;33.10;55.10
9845;DHT22;4961;50.782;6.080;2022-07-18T15:22:34;33.10;55.70
9845;DHT22;4961;50.782;6.080;2022-07-18T15:25:03;33.00;54.80
9845;DHT22;4961;50.782;6.080;2022-07-18T15:27:31;32.90;54.30
9845;DHT22;4961;50.782;6.080;2022-07-18T15:30:00;32.80;55.00
9845;DHT22;4961;50.782;6.080;2022-07-18T15:32:48;32.80;56.40
9845;DHT22;4961;50.782;6.080;2022-07-18T15:35:18;32.90;58.00
9845;DHT22;4961;50.782;6.080;2022-07-18T15:37:46;32.90;56.90
9845;DHT22;4961;50.782;6.080;2022-07-18T15:40:22;32.90;56.40
9845;DHT22;4961;50.782;6.080;2022-07-18T15:42:51;32.80;56.80
9845;DHT22;4961;50.782;6.080;2022-07-18T15:45:19;32.80;56.30
9845;DHT22;4961;50.782;6.080;2022-07-18T15:47:48;32.70;56.20
9845;DHT22;4961;50.782;6.080;2022-07-18T15:50:18;32.70;56.70
9845;DHT22;4961;50.782;6.080;2022-07-18T15:52:47;32.70;55.50
9845;DHT22;4961;50.782;6.080;2022-07-18T15:55:15;32.70;55.90
9845;DHT22;4961;50.782;6.080;2022-07-18T15:57:43;32.80;56.10
9845;DHT22;4961;50.782;6.080;2022-07-18T16:00:12;32.80;56.60
9845;DHT22;4961;50.782;6.080;2022-07-18T16:02:41;32.80;55.90
9845;DHT22;4961;50.782;6.080;2022-07-18T16:05:10;32.80;58.00
9845;DHT22;4961;50.782;6.080;2022-07-18T16:07:39;32.70;55.70
9845;DHT22;4961;50.782;6.080;2022-07-18T16:10:09;32.70;56.50
9845;DHT22;4961;50.782;6.080;2022-07-18T16:12:37;32.60;55.40
9845;DHT22;4961;50.782;6.080;2022-07-18T16:15:07;32.60;55.90
9845;DHT22;4961;50.782;6.080;2022-07-18T16:17:36;32.50;55.70
9845;DHT22;4961;50.782;6.080;2022-07-18T16:20:06;32.40;55.40
9845;DHT22;4961;50.782;6.080;2022-07-18T16:22:34;32.40;55.90
9845;DHT22;4961;50.782;6.080;2022-07-18T16:25:05;32.30;55.70